Tiempo atmosférico en la estación meteorológica de Boadilla Fuente San Esteban, Salamanca (785 m.)



Fecha
DESCASC
Temp. máxima en grados centígrados (hora)
DESCASC
Temp. mínima en grados centígrados (hora)
DESCASC
Temp. media en grados centígrados
DESCASC
Racha de viento máxima en m/sg (hora)
DESCASC
Velocidad máxima media en intervalos de 10 minutos(hora)
DESCASC
Precipitaciones diarias en mm
DESCASC
Precipitaciones de 00:00 a 06:00 en mm
DESCASC
Precipitaciones de 06:00 a 12:00 en mm
DESCASC
Precipitaciones de 12:00 a 18:00 en mm
DESCASC
Precipitaciones de 18:00 a 24:00 en mm
DESCASC
05-04-2020 14.1 (14:30) 8.5 (03:40) 11.3 13.06 (17:30) 8.33 (17:40) 5 0 0 1 4
04-04-2020 17.6 (15:00) 3.7 (08:10) 10.7 11.39 (13:30) 6.67 (16:10) 0 0 0 0 0
03-04-2020 15.5 (17:20) 0.5 (04:50) 8 6.94 (09:40) 5 (09:20) 0 0 0 0 0
02-04-2020 13.4 (17:30) -0.6 (-00:0) 6.4 10.28 (14:40) 7.5 (14:30) 0.6 0 0 0 0.6
01-04-2020 11.7 (17:40) -0.8 (-00:0) 5.4 8.89 (15:00) 5.28 (14:50) 0 0 0 0 0
31-03-2020 10.7 (18:50) -0.2 (00:00) 5.2 12.22 (05:40) 7.78 (03:50) 0.4 0 0.4 0 0
30-03-2020 11 (00:00) -0.1 (00:00) 5.4 15.83 (13:30) 10.56 (11:50) 0.4 0 0.4 0 0
29-03-2020 16.2 (17:50) 1.7 (00:00) 9 5 (23:20) 3.33 (23:30) 0 0 0 0 0
28-03-2020 14.7 (17:00) -2.2 (-00:0) 6.2 8.61 (11:50) 5.56 (12:10) 0 0 0 0 0
27-03-2020 11.5 (16:30) -0.2 (00:00) 5.6 10.56 (03:40) 7.22 (12:40) 0 0 0 0 0
26-03-2020 15.1 (17:10) 1.9 (00:00) 8.5 5.83 (15:00) 3.61 (23:59) 0 0 0 0 0
25-03-2020 17.4 (16:10) 2.7 (00:00) 10 8.89 (14:40) 5.28 (16:00) 0 0 0 0 0
24-03-2020 15.3 (15:30) 1 (00:00) 8.2 8.89 (08:30) 6.11 (12:10) 0 0 0 0 0
23-03-2020 14.6 (15:50) 2 (00:00) 8.3 11.67 (17:10) 8.06 (17:10) 0 0 0 0 0
22-03-2020 12.7 (17:50) 3.2 (00:50) 7.9 7.78 (19:20) 5.28 (19:30) 0.2 0 0.2 0 0
21-03-2020 8.8 (16:20) 3.6 (00:00) 6.2 6.67 (11:30) 4.44 (11:30) 7 1.2 5.4 0.4 0
20-03-2020 10.5 (18:20) 7.1 (00:00) 8.8 6.11 (20:40) 4.17 (20:40) 8.4 0 3 3.8 1.6
19-03-2020 13.8 (14:30) 5.3 (00:00) 9.6 4.17 (11:20) 2.5 (11:20) 0 0 0 0 0
18-03-2020 17.2 (16:10) 5.5 (00:00) 11.4 10.28 (16:30) 6.39 (13:40) 0 0 0 0 0
17-03-2020 13.9 (18:20) 2.6 (00:00) 8.2 12.78 (14:40) 9.17 (14:50) 1 1 0 0 0
16-03-2020 5.4 (16:40) 0.8 (00:00) 3.1 16.11 (16:30) 10.56 (22:50) 10.2 1.2 1.8 3.6 3.6
15-03-2020 17.5 (13:40) 0.2 (00:00) 8.9 13.61 (14:20) 8.33 (20:00) 0.4 0 0 0 0.4
14-03-2020 17.9 (16:30) 2.1 (00:00) 10 6.94 (12:20) 5 (11:10) 0 0 0 0 0
13-03-2020 15.4 (16:20) 6.4 (23:50) 10.9 8.61 (10:00) 6.39 (10:00) 0 0 0 0 0
12-03-2020 21.8 (14:00) 8.4 (00:00) 15.1 6.67 (14:50) 4.17 (14:50) 0 0 0 0 0
11-03-2020 24.3 (16:10) 5.9 (00:00) 15.1 6.11 (17:40) 3.89 (16:50) 0 0 0 0 0
10-03-2020 21.7 (16:40) 3.5 (00:00) 12.6 5.83 (14:50) 3.33 (16:20) 0 0 0 0 0
09-03-2020 14.2 (17:10) 1.9 (00:00) 8 4.72 (18:00) 3.06 (01:00) 0 0 0 0 0
08-03-2020 11 (17:10) 0.7 (00:00) 5.8 7.22 (17:50) 4.17 (17:50) 0 0 0 0 0

Gráficas

Temp. máximas Temp. mínimas Temp. medias Precipitaciones Rachas de viento máximas Velocidades máximas media en intervalos de 10 minutos

Datos horarios

Fecha y hora oficial Temperatura (ºC) Velocidad del viento (km/h) Dirección del viento Racha (km/h) Dirección de racha Precipitación (mm) Presión (hPa) Tendencia (hPa) Humedad (%)
2020-04-06 23:00:00 10.8 5 Sudeste 9 Este 0 -- -- 94
2020-04-06 22:00:00 10.9 2 Este 10 Sudoeste 0 -- -- 93
2020-04-06 21:00:00 11.5 6 Sudoeste 10 Sudoeste 0.6 -- -- 90
2020-04-06 20:00:00 12.4 3 Oeste 7 Sudoeste 0 -- -- 86
2020-04-06 19:00:00 12.7 3 Sudoeste 11 Sudoeste 0 -- -- 81
2020-04-06 18:00:00 12.5 5 Sudoeste 17 Sudoeste 0.2 -- -- 85
2020-04-06 17:00:00 12.7 12 Sudoeste 25 Sudoeste 0.2 -- -- 82
2020-04-06 16:00:00 12.9 7 Oeste 16 Sudoeste 0 -- -- 80
2020-04-06 15:00:00 12.9 7 Sudoeste 17 Sur 0 -- -- 81
2020-04-06 14:00:00 12.4 9 Sur 14 Sur 0.4 -- -- 84
2020-04-06 13:00:00 12.1 7 Sudoeste 12 Sudoeste 0 -- -- 82
2020-04-06 12:00:00 11.5 9 Sudoeste 12 Sur 0 -- -- 85
2020-04-06 11:00:00 11.1 6 Sudoeste 12 Oeste 0 -- -- 91
2020-04-06 10:00:00 10.3 5 Oeste 12 Oeste 0 -- -- 96
2020-04-06 09:00:00 9.6 3 Oeste 10 Oeste 0 -- -- 96
2020-04-06 08:00:00 9.5 3 Oeste 8 Sudoeste 0 -- -- 96
2020-04-06 07:00:00 9.8 5 Oeste 13 Oeste 0 -- -- 96
2020-04-06 06:00:00 10.1 9 Oeste 17 Sudoeste 0 -- -- 95
2020-04-06 05:00:00 11.4 12 Sudoeste 24 Sudoeste 0 -- -- 95
2020-04-06 04:00:00 11.6 15 Sudoeste 30 Sudoeste 0 -- -- 92
2020-04-06 03:00:00 12 18 Sur 27 Sudoeste 0.2 -- -- 91
2020-04-06 02:00:00 12.2 14 Sudoeste 28 Sur 0 -- -- 92
2020-04-06 01:00:00 11.4 8 Sur 12 Sudeste 0 -- -- 94
2020-04-06 00:00:00 11.2 4 Sudeste 9 Sudeste 0.2 -- -- 95
2020-04-05 23:00:00 11.2 6 Sudeste 10 Sudeste 0.2 -- -- 94
2020-04-05 22:00:00 11.5 3 Este 10 Sudeste 0.6 -- -- 95
2020-04-05 21:00:00 11.7 4 Sudeste 18 Sur 2.4 -- -- 93
2020-04-05 20:00:00 12.5 14 Sur 23 Sur 0.4 -- -- 87
2020-04-05 19:00:00 12.8 12 Sur 30 Sudeste 0.2 -- -- 85
2020-04-05 18:00:00 13 25 Sudeste 47 Sur 0 -- -- 82
2020-04-05 17:00:00 13.7 29 Sur 44 Sur 0 -- -- 78
2020-04-05 16:00:00 12.7 20 Sudeste 30 Sudeste 1 -- -- 84
2020-04-05 15:00:00 13.1 18 Sur 35 Sudeste 0 -- -- 77
2020-04-05 14:00:00 13.1 20 Sudeste 28 Sudeste 0 -- -- 75
2020-04-05 13:00:00 12.6 20 Sur 31 Sur 0 -- -- 70
2020-04-05 12:00:00 13 18 Sur 29 Sur 0 -- -- 67
2020-04-05 11:00:00 13.8 20 Sur 31 Sur 0 -- -- 66
2020-04-05 10:00:00 12 13 Sur 23 Sur 0 -- -- 72
2020-04-05 09:00:00 10.8 11 Sur 33 Sur 0 -- -- 74
2020-04-05 08:00:00 10.4 17 Sur 30 Sur 0 -- -- 76
2020-04-05 07:00:00 9.6 9 Sur 23 Sur 0 -- -- 80
2020-04-05 06:00:00 10.2 12 Sur 23 Sur 0 -- -- 77
2020-04-05 05:00:00 10.3 16 Sur 25 Sur 0 -- -- 76
2020-04-05 04:00:00 8.6 10 Sur 18 Sur 0 -- -- 82
2020-04-05 03:00:00 9.9 11 Sudeste 20 Sur 0 -- -- 76
2020-04-05 02:00:00 9.1 6 Sudeste 14 Sudeste 0 -- -- 76
2020-04-05 01:00:00 9.8 9 Sur 16 Sudeste 0 -- -- 74
2020-04-05 00:00:00 10.8 7 Sur 15 Sur 0 -- -- 68
2020-04-04 23:00:00 11.6 8 Sur 15 Sur 0 -- -- 65
2020-04-04 22:00:00 11.9 10 Sur 17 Sur 0 -- -- 65
2020-04-04 21:00:00 12.9 13 Sudeste 26 Sudeste 0 -- -- 58
2020-04-04 20:00:00 13.5 15 Sur 24 Sur 0 -- -- 59
2020-04-04 19:00:00 14.1 14 Sur 31 Sur 0 -- -- 53
2020-04-04 18:00:00 14.9 19 Sur 33 Sudeste 0 -- -- 48
2020-04-04 17:00:00 15.5 24 Sur 38 Sur 0 -- -- 47
2020-04-04 16:00:00 15.9 19 Sur 36 Sur 0 -- -- 46
2020-04-04 15:00:00 17.6 19 Sur 36 Sur 0 -- -- 41
2020-04-04 14:00:00 16.7 14 Sudeste 41 Sur 0 -- -- 44
2020-04-04 13:00:00 16 15 Sudeste 32 Sudeste 0 -- -- 45
2020-04-04 12:00:00 14.8 13 Este 28 Este 0 -- -- 49
2020-04-04 11:00:00 13.1 8 Sudeste 16 Este 0 -- -- 57
2020-04-04 10:00:00 9.3 8 Sudeste 17 Sudeste 0 -- -- 70
2020-04-04 09:00:00 5.9 9 Sudeste 14 Sudeste 0 -- -- 79
2020-04-04 08:00:00 3.8 4 Sudeste 16 Este 0 -- -- 83
2020-04-04 07:00:00 3.8 4 Sudeste 13 Este 0 -- -- 83
2020-04-04 06:00:00 4.2 7 Sudeste 15 Sudeste 0 -- -- 82
2020-04-04 05:00:00 4.2 7 Sudeste 12 Sudeste 0 -- -- 82
2020-04-04 04:00:00 4.5 6 Sudeste 14 Sudeste 0 -- -- 83
2020-04-04 03:00:00 5 4 Sudeste 11 Sudeste 0 -- -- 79
2020-04-04 02:00:00 6.3 8 Sudeste 17 Sudeste 0 -- -- 76
2020-04-04 01:00:00 7.3 10 Sudeste 17 Sudeste 0 -- -- 73
2020-04-04 00:00:00 6.6 6 Sudeste 19 Este 0 -- -- 75
2020-04-03 23:00:00 6.9 12 Este 15 Este 0 -- -- 73
2020-04-03 22:00:00 8.3 11 Este 14 Nordeste 0 -- -- 68
2020-04-03 21:00:00 10.6 6 Nordeste 10 Nordeste 0 -- -- 58
2020-04-03 20:00:00 14.3 8 Nordeste 13 Nordeste 0 -- -- 50
2020-04-03 19:00:00 15.3 9 Nordeste 17 Nordeste 0 -- -- 45
2020-04-03 18:00:00 15.4 8 Este 19 Nordeste 0 -- -- 45
2020-04-03 17:00:00 15.3 6 Nordeste 18 Nordeste 0 -- -- 48
2020-04-03 16:00:00 14.8 8 Nordeste 17 Nordeste 0 -- -- 48
2020-04-03 15:00:00 14.3 8 Este 24 Nordeste 0 -- -- 50
2020-04-03 14:00:00 13.4 11 Nordeste 21 Nordeste 0 -- -- 56
2020-04-03 13:00:00 12.4 9 Nordeste 24 Este 0 -- -- 61
2020-04-03 12:00:00 11 12 Nordeste 18 Este 0 -- -- 70
2020-04-03 11:00:00 8.5 11 Este 22 Este 0 -- -- 81
2020-04-03 10:00:00 4.7 16 Este 25 Este 0 -- -- 89
2020-04-03 09:00:00 2.1 11 Este 19 Este 0 -- -- 96
2020-04-03 08:00:00 0.6 9 Este 13 Este 0 -- -- 97
2020-04-03 07:00:00 1.3 8 Este 17 Este 0 -- -- 96
2020-04-03 06:00:00 1.7 13 Este 19 Este 0 -- -- 97
2020-04-03 05:00:00 1.1 12 Este 14 Este 0 -- -- 98
2020-04-03 04:00:00 1.9 2 Noroeste 10 Sudeste 0 -- -- 96
2020-04-03 03:00:00 2.5 5 Sudeste 9 Este 0 -- -- 97
2020-04-03 02:00:00 3.1 6 Este 10 Este 0 -- -- 94
2020-04-03 01:00:00 3.7 8 Este 11 Este 0 -- -- 96
2020-04-03 00:00:00 4.7 3 Norte 12 Sudeste 0 -- -- 89
2020-04-02 23:00:00 5.7 6 Este 9 Este 0 -- -- 91
2020-04-02 22:00:00 6.6 5 Este 10 Este 0 -- -- 89
2020-04-02 21:00:00 8.9 10 Este 17 Nordeste 0 -- -- 83
2020-04-02 20:00:00 9.6 8 Este 17 Este 0 -- -- 81
2020-04-02 19:00:00 10.1 14 Nordeste 27 Este 0.6 -- -- 79
2020-04-02 18:00:00 12.5 12 Nordeste 26 Nordeste 0 -- -- 64
2020-04-02 17:00:00 12 17 Nordeste 29 Nordeste 0 -- -- 66
2020-04-02 16:00:00 11.9 18 Nordeste 31 Este 0 -- -- 72
2020-04-02 15:00:00 11.3 19 Nordeste 37 Nordeste 0 -- -- 73
2020-04-02 14:00:00 10.7 22 Nordeste 35 Nordeste 0 -- -- 78
2020-04-02 13:00:00 9.2 16 Nordeste 28 Nordeste 0 -- -- 85
2020-04-02 12:00:00 8.7 12 Nordeste 18 Nordeste 0 -- -- 85
2020-04-02 11:00:00 6.7 5 Norte 10 Norte 0 -- -- 95
2020-04-02 10:00:00 5 4 Nordeste 8 Nordeste 0 -- -- 97
2020-04-02 09:00:00 4.5 5 Este 11 Nordeste 0 -- -- 98
2020-04-02 08:00:00 3.2 3 Nordeste 8 Nordeste 0 -- -- 98
2020-04-02 07:00:00 1.6 3 Sudeste 9 Sudeste 0 -- -- 97
2020-04-02 06:00:00 0 5 Este 7 Este 0 -- -- 93
2020-04-02 05:00:00 0.3 3 Nordeste 7 Este 0 -- -- 95
2020-04-02 04:00:00 0.3 5 Este 7 Este 0 -- -- 92
2020-04-02 03:00:00 1.8 3 Este 13 Este 0 -- -- 83
2020-04-02 02:00:00 2.5 11 Este 13 Este 0 -- -- 82
2020-04-02 01:00:00 1.1 4 Este 13 Nordeste 0 -- -- 89
2020-04-02 00:00:00 2 4 Sudeste 7 Este 0 -- -- 86
2020-04-01 23:00:00 3 0 Calma 8 Sudeste 0 -- -- 82
2020-04-01 22:00:00 4.6 6 Sudeste 10 Sudeste 0 -- -- 77
2020-04-01 21:00:00 7.4 4 Sudeste 17 Sur 0 -- -- 67
2020-04-01 20:00:00 10.5 10 Sur 17 Sur 0 -- -- 51
2020-04-01 19:00:00 11.5 8 Sudoeste 20 Sur 0 -- -- 50
2020-04-01 18:00:00 11.3 8 Sudeste 21 Sur 0 -- -- 48
2020-04-01 17:00:00 10.6 9 Sur 23 Sudeste 0 -- -- 52
2020-04-01 16:00:00 10.9 11 Sur 28 Sur 0 -- -- 50
2020-04-01 15:00:00 10.8 17 Sur 32 Sur 0 -- -- 56
2020-04-01 14:00:00 9 4 Sudoeste 14 Oeste 0 -- -- 68
2020-04-01 13:00:00 7.3 6 Sudoeste 14 Sudoeste 0 -- -- 74
2020-04-01 12:00:00 6.9 5 Nordeste 15 Nordeste 0 -- -- 75
2020-04-01 11:00:00 6 9 Nordeste 19 Nordeste 0 -- -- 81
2020-04-01 10:00:00 3.3 7 Nordeste 11 Este 0 -- -- 88
2020-04-01 09:00:00 0.9 4 Este 8 Este 0 -- -- 95
2020-04-01 08:00:00 0.3 4 Este 8 Este 0 -- -- 95
2020-04-01 07:00:00 -0.4 0 Calma 5 Norte 0 -- -- 93
2020-04-01 06:00:00 0.3 0 Calma 8 Oeste 0 -- -- 90
2020-04-01 05:00:00 2.3 3 Noroeste 9 Sur 0 -- -- 90
2020-04-01 04:00:00 3.6 8 Sudoeste 15 Sudoeste 0 -- -- 92
2020-04-01 03:00:00 4.7 6 Sudoeste 17 Sudoeste 0 -- -- 93
2020-04-01 02:00:00 6.4 6 Sudoeste 13 Sudoeste 0 -- -- 89
2020-04-01 01:00:00 6.8 0 Calma 15 Sudoeste 0 -- -- 93
2020-04-01 00:00:00 6.5 6 Sur 14 Sudeste 0 -- -- 90
2020-03-31 23:00:00 7.6 10 Sudeste 19 Sur 0 -- -- 85
2020-03-31 22:00:00 8.1 5 Sudeste 17 Sudeste 0 -- -- 83
2020-03-31 21:00:00 9 11 Sudeste 25 Sudeste 0 -- -- 79
2020-03-31 20:00:00 10.1 14 Sudeste 22 Sudeste 0 -- -- 75
2020-03-31 19:00:00 10.6 14 Sudeste 19 Sudeste 0 -- -- 73
2020-03-31 18:00:00 10.4 7 Sudeste 15 Sudeste 0 -- -- 71
2020-03-31 17:00:00 9.4 8 Sudeste 16 Nordeste 0 -- -- 77
2020-03-31 16:00:00 9.9 12 Nordeste 19 Este 0 -- -- 76
2020-03-31 15:00:00 8.1 12 Este 22 Este 0 -- -- 81
2020-03-31 14:00:00 5.8 19 Este 28 Este 0 -- -- 83
2020-03-31 13:00:00 4.3 22 Este 30 Este 0 -- -- 85
2020-03-31 12:00:00 3.4 19 Este 32 Este 0 -- -- 86
2020-03-31 11:00:00 1.5 18 Este 30 Nordeste 0.4 -- -- 90
2020-03-31 10:00:00 0 19 Nordeste 30 Nordeste 0 -- -- 95
2020-03-31 09:00:00 0.4 20 Nordeste 39 Nordeste 0 -- -- 92
2020-03-31 08:00:00 0.3 26 Nordeste 35 Este 0 -- -- 92
2020-03-31 07:00:00 0.6 22 Nordeste 38 Nordeste 0 -- -- 90
2020-03-31 06:00:00 0.5 22 Nordeste 44 Este 0 -- -- 87
2020-03-31 05:00:00 0.3 23 Nordeste 37 Nordeste 0 -- -- 86
2020-03-31 04:00:00 0.4 26 Este 41 Este -- -- -- 86
2020-03-31 03:00:00 0.8 21 Nordeste 35 Nordeste 0 -- -- 79
2020-03-31 02:00:00 0.7 17 Nordeste 27 Nordeste 0 -- -- 83
2020-03-31 01:00:00 0.2 19 Nordeste 32 Nordeste 0 -- -- 90
2020-03-31 00:00:00 -0.1 21 Nordeste 42 Este 0 -- -- 94
2020-03-30 23:00:00 1.4 22 Este 42 Este 0 -- -- 80
2020-03-30 22:00:00 2.3 27 Este 44 Este 0 -- -- 71
2020-03-30 21:00:00 2 24 Nordeste 46 Este 0 -- -- 78
2020-03-30 20:00:00 2.4 21 Este 37 Este 0 -- -- 74
2020-03-30 19:00:00 1.8 24 Este 38 Este 0 -- -- 79
2020-03-30 18:00:00 2.3 24 Este 44 Nordeste 0 -- -- 72
2020-03-30 17:00:00 3.3 28 Nordeste 46 Este 0 -- -- 64
2020-03-30 16:00:00 4 31 Este 47 Este 0 -- -- 61
2020-03-30 15:00:00 4.3 24 Nordeste 44 Nordeste 0 -- -- 58
2020-03-30 14:00:00 4.5 33 Nordeste 57 Nordeste 0 -- -- 54
2020-03-30 13:00:00 4.9 31 Nordeste 49 Este 0 -- -- 56
2020-03-30 12:00:00 4.1 33 Nordeste 50 Nordeste 0 -- -- 65
2020-03-30 11:00:00 3.4 34 Nordeste 54 Este 0 -- -- 68
2020-03-30 10:00:00 3.1 29 Nordeste 48 Nordeste 0 -- -- 73
2020-03-30 09:00:00 2.7 28 Este 49 Este 0.2 -- -- 87
2020-03-30 08:00:00 3.2 24 Este 47 Nordeste 0.2 -- -- 86
2020-03-30 07:00:00 3.9 30 Nordeste 45 Nordeste 0 -- -- 82
2020-03-30 06:00:00 5.6 22 Nordeste 38 Este 0 -- -- 79
2020-03-30 05:00:00 5.4 19 Este 31 Este 0 -- -- 81
2020-03-30 04:00:00 5.9 22 Nordeste 39 Nordeste 0 -- -- 78
2020-03-30 03:00:00 6.5 26 Nordeste 37 Nordeste 0 -- -- 76
2020-03-30 02:00:00 7.6 23 Nordeste 36 Nordeste 0 -- -- 70
2020-03-30 01:00:00 9.8 21 Nordeste 30 Noroeste 0 -- -- 60
2020-03-30 00:00:00 11 8 Sur 18 Sudoeste 0 -- -- 67
2020-03-29 23:00:00 11.3 9 Sur 13 Sur 0 -- -- 66
2020-03-29 22:00:00 11.8 0 Calma 4 Norte 0 -- -- 69
2020-03-29 21:00:00 12.8 0 Calma 6 Norte 0 -- -- 62
2020-03-29 20:00:00 14.2 3 Noroeste 8 Noroeste 0 -- -- 61
2020-03-29 19:00:00 15.1 6 Noroeste 10 Sudoeste 0 -- -- 50
2020-03-29 18:00:00 16.1 5 Noroeste 10 Oeste 0 -- -- 43
2020-03-29 17:00:00 15.2 5 Norte 13 Noroeste 0 -- -- 45
2020-03-29 16:00:00 14.9 6 Norte 13 Norte 0 -- -- 50
2020-03-29 15:00:00 15.2 7 Nordeste 14 Nordeste 0 -- -- 44
2020-03-29 14:00:00 14.6 5 Sudeste 14 Nordeste 0 -- -- 48
2020-03-29 13:00:00 13.6 7 Nordeste 12 Norte 0 -- -- 52
2020-03-29 12:00:00 12.6 2 Norte 7 Nordeste 0 -- -- 62
2020-03-29 11:00:00 10.6 3 Nordeste 8 Sudeste 0 -- -- 67
2020-03-29 10:00:00 7 4 Sudeste 10 Sudeste 0 -- -- 80
2020-03-29 09:00:00 3.4 4 Sudeste 11 Sudeste 0 -- -- 90
2020-03-29 08:00:00 2 8 Sudeste 13 Sudeste 0 -- -- 91
2020-03-29 07:00:00 2 10 Sudeste 13 Sudeste 0 -- -- 91
2020-03-29 06:00:00 2.3 9 Sudeste 12 Sudeste 0 -- -- 91
2020-03-29 05:00:00 2.5 6 Sudeste 10 Sudeste 0 -- -- 89
2020-03-29 03:00:00 3.7 8 Sudeste 10 Sudeste 0 -- -- 88
2020-03-29 01:00:00 4.1 8 Sudeste 10 Sudeste 0 -- -- 87
2020-03-29 00:00:00 5.4 4 Sur 8 Sudeste 0 -- -- 81
2020-03-28 23:00:00 7.7 5 Sudoeste 6 Sudoeste 0 -- -- 70
2020-03-28 22:00:00 8.4 5 Sudoeste 12 Sudoeste 0 -- -- 69
2020-03-28 21:00:00 8.4 7 Sudoeste 11 Sur 0 -- -- 70
2020-03-28 20:00:00 11.5 3 Nordeste 10 Nordeste 0 -- -- 59
2020-03-28 19:00:00 13.6 8 Nordeste 12 Nordeste 0 -- -- 51
2020-03-28 18:00:00 13.9 7 Nordeste 16 Nordeste 0 -- -- 46
2020-03-28 17:00:00 14.7 4 Nordeste 18 Nordeste 0 -- -- 44
2020-03-28 16:00:00 14.5 4 Nordeste 22 Nordeste 0 -- -- 44
2020-03-28 15:00:00 14.1 9 Nordeste 26 Nordeste 0 -- -- 49
2020-03-28 14:00:00 13.1 10 Este 27 Nordeste 0 -- -- 44
2020-03-28 13:00:00 12.5 12 Nordeste 28 Nordeste 0 -- -- 51
2020-03-28 12:00:00 11.3 18 Nordeste 31 Nordeste 0 -- -- 52
2020-03-28 11:00:00 9.1 14 Nordeste 20 Nordeste 0 -- -- 62
2020-03-28 10:00:00 6.5 9 Nordeste 18 Este 0 -- -- 70
2020-03-28 09:00:00 3.3 6 Este 11 Este 0 -- -- 80
2020-03-28 08:00:00 -0.5 6 Este 9 Este 0 -- -- 92
2020-03-28 07:00:00 -1.8 4 Este 5 Este 0 -- -- 94
2020-03-28 06:00:00 -2.1 0 Calma 5 Oeste 0 -- -- 92
2020-03-28 05:00:00 -1.1 0 Calma 8 Este 0 -- -- 89
2020-03-28 04:00:00 0 4 Sudeste 8 Sudeste 0 -- -- 88
2020-03-28 03:00:00 -0.7 2 Sudeste 4 Este 0 -- -- 90
2020-03-28 02:00:00 0.1 3 Sur 5 Sudeste 0 -- -- 88
2020-03-28 01:00:00 1 0 Calma 9 Sudeste 0 -- -- 83
2020-03-28 00:00:00 1.4 4 Sudeste 7 Este 0 -- -- 81
2020-03-27 23:00:00 1.8 0 Calma 8 Sur 0 -- -- 82
2020-03-27 22:00:00 3.8 0 Calma 10 Este 0 -- -- 72
2020-03-27 21:00:00 5.4 9 Este 12 Este 0 -- -- 66
2020-03-27 20:00:00 7.6 7 Este 15 Nordeste 0 -- -- 57
2020-03-27 19:00:00 10.3 12 Este 23 Nordeste 0 -- -- 50
2020-03-27 18:00:00 10.9 17 Nordeste 28 Este 0 -- -- 46
2020-03-27 17:00:00 11 15 Nordeste 23 Nordeste 0 -- -- 49
2020-03-27 16:00:00 11.2 14 Nordeste 29 Nordeste 0 -- -- 48
2020-03-27 15:00:00 10.3 14 Nordeste 30 Este 0 -- -- 42
2020-03-27 14:00:00 9.8 21 Nordeste 33 Nordeste 0 -- -- 42
2020-03-27 13:00:00 8.4 23 Nordeste 35 Nordeste 0 -- -- 51
2020-03-27 12:00:00 7.3 19 Nordeste 34 Nordeste 0 -- -- 56
2020-03-27 11:00:00 5.1 24 Nordeste 34 Este 0 -- -- 64
2020-03-27 10:00:00 3.3 21 Este 29 Nordeste 0 -- -- 72
2020-03-27 09:00:00 2 19 Nordeste 31 Este 0 -- -- 75
2020-03-27 08:00:00 0.3 13 Este 21 Nordeste 0 -- -- 81
2020-03-27 07:00:00 0 14 Este 23 Este 0 -- -- 81
2020-03-27 06:00:00 0.6 17 Este 24 Este 0 -- -- 80
2020-03-27 05:00:00 1.3 18 Este 30 Este 0 -- -- 79
2020-03-27 04:00:00 2 19 Este 38 Este 0 -- -- 80
2020-03-27 03:00:00 3 23 Este 33 Este 0 -- -- 78
2020-03-27 02:00:00 3.5 19 Este 30 Este 0 -- -- 76
2020-03-27 01:00:00 4.5 21 Este 32 Este 0 -- -- 77
2020-03-27 00:00:00 5.6 13 Nordeste 20 Nordeste 0 -- -- 81
2020-03-26 23:00:00 6.5 6 Sudoeste 10 Sudoeste 0 -- -- 87
2020-03-26 22:00:00 7.8 8 Oeste 13 Sudoeste 0 -- -- 85
2020-03-26 21:00:00 7.4 6 Sudoeste 10 Oeste 0 -- -- 69
2020-03-26 20:00:00 10.1 0 Calma 5 Oeste 0 -- -- 57
2020-03-26 19:00:00 14.2 0 Calma 13 Noroeste 0 -- -- 44
2020-03-26 18:00:00 14.8 8 Noroeste 18 Noroeste 0 -- -- 46
2020-03-26 17:00:00 15 8 Noroeste 17 Noroeste 0 -- -- 45
2020-03-26 16:00:00 14.5 8 Norte 20 Norte 0 -- -- 45
2020-03-26 15:00:00 14.1 9 Noroeste 21 Noroeste 0 -- -- 52
2020-03-26 14:00:00 13 8 Oeste 16 Oeste 0 -- -- 61
2020-03-26 13:00:00 11.2 8 Noroeste 14 Noroeste 0 -- -- 69
2020-03-26 12:00:00 9 7 Oeste 13 Oeste 0 -- -- 82
2020-03-26 11:00:00 6.1 6 Oeste 12 Sudoeste 0 -- -- 97
2020-03-26 10:00:00 5.6 8 Oeste 12 Oeste 0 -- -- 96
2020-03-26 09:00:00 6 5 Sudoeste 10 Sudoeste 0 -- -- 98
2020-03-26 08:00:00 2.4 4 Sur 5 Sudeste 0 -- -- 99
2020-03-26 07:00:00 2.1 3 Sur 4 Sudoeste 0 -- -- 97
2020-03-26 06:00:00 2.4 2 Sur 4 Sudoeste 0 -- -- 97
2020-03-26 05:00:00 3 3 Sur 8 Sudoeste 0 -- -- 94
2020-03-26 04:00:00 5 6 Sur 8 Sudoeste 0 -- -- 93
2020-03-26 03:00:00 6 5 Sudoeste 10 Sudoeste 0 -- -- 92
2020-03-26 02:00:00 6.6 8 Sudoeste 12 Sudoeste 0 -- -- 90
2020-03-26 01:00:00 7.8 5 Sudoeste 10 Sudoeste 0 -- -- 89
2020-03-26 00:00:00 8.4 6 Sudoeste 13 Oeste 0 -- -- 87
2020-03-25 23:00:00 10.3 7 Oeste 22 Oeste 0 -- -- 83
2020-03-25 22:00:00 10.8 14 Sudoeste 24 Oeste 0 -- -- 81
2020-03-25 21:00:00 11.9 14 Oeste 23 Sudoeste 0 -- -- 73
2020-03-25 20:00:00 13.3 9 Oeste 25 Oeste 0 -- -- 67
2020-03-25 19:00:00 15.5 15 Oeste 30 Oeste 0 -- -- 58
2020-03-25 18:00:00 16.8 19 Oeste 32 Oeste 0 -- -- 50
2020-03-25 17:00:00 16.8 13 Oeste 29 Oeste 0 -- -- 47
2020-03-25 16:00:00 17.2 19 Oeste 31 Oeste 0 -- -- 46
2020-03-25 15:00:00 16.5 18 Oeste 32 Oeste 0 -- -- 52
2020-03-25 14:00:00 15.7 10 Noroeste 28 Oeste 0 -- -- 57
2020-03-25 13:00:00 14.9 12 Noroeste 25 Oeste 0 -- -- 59
2020-03-25 12:00:00 13.5 11 Oeste 21 Oeste 0 -- -- 65
2020-03-25 11:00:00 11.4 8 Oeste 16 Oeste 0 -- -- 79
2020-03-25 10:00:00 9.3 8 Sudoeste 13 Sudoeste 0 -- -- 85
2020-03-25 09:00:00 6.4 3 Sudoeste 5 Oeste 0 -- -- 96
2020-03-25 08:00:00 3.4 0 Calma 6 Sur 0 -- -- 95
2020-03-25 07:00:00 4.9 2 Sudoeste 14 Sudoeste 0 -- -- 96
2020-03-25 06:00:00 4.1 8 Sudoeste 13 Sudoeste 0 -- -- 98
2020-03-25 05:00:00 2.8 4 Sur 8 Sur 0 -- -- 96
2020-03-25 04:00:00 3.2 5 Sur 6 Sur 0 -- -- 96
2020-03-25 03:00:00 3.3 4 Sur 4 Sudeste 0 -- -- 96
2020-03-25 02:00:00 3.4 0 Calma 8 Sur 0 -- -- 93
2020-03-25 01:00:00 5.5 4 Sudeste 10 Este 0 -- -- 88
2020-03-25 00:00:00 5 3 Este 6 Este 0 -- -- 88
2020-03-24 23:00:00 7.4 5 Este 12 Nordeste 0 -- -- 82
2020-03-24 22:00:00 7.5 5 Este 9 Nordeste 0 -- -- 81
2020-03-24 21:00:00 9.5 5 Este 11 Nordeste 0 -- -- 75
2020-03-24 20:00:00 10.4 9 Nordeste 19 Nordeste 0 -- -- 70
2020-03-24 19:00:00 14 12 Nordeste 23 Este 0 -- -- 59
2020-03-24 18:00:00 14.7 14 Nordeste 25 Nordeste 0 -- -- 57
2020-03-24 17:00:00 14.9 18 Nordeste 28 Nordeste 0 -- -- 58
2020-03-24 16:00:00 14.7 13 Nordeste 31 Nordeste 0 -- -- 58
2020-03-24 15:00:00 14.7 13 Nordeste 27 Nordeste 0 -- -- 59
2020-03-24 14:00:00 14.3 16 Nordeste 30 Este 0 -- -- 62
2020-03-24 13:00:00 13.5 21 Nordeste 32 Este 0 -- -- 64
2020-03-24 12:00:00 12.9 21 Nordeste 30 Nordeste 0 -- -- 69
2020-03-24 11:00:00 10.8 19 Nordeste 28 Nordeste 0 -- -- 81
2020-03-24 10:00:00 8.5 17 Nordeste 26 Este 0 -- -- 87
2020-03-24 09:00:00 7 17 Nordeste 32 Nordeste 0 -- -- 88
2020-03-24 08:00:00 4.5 13 Este 22 Este 0 -- -- 95
2020-03-24 07:00:00 2.7 9 Este 13 Este 0 -- -- 97
2020-03-24 06:00:00 3.4 7 Este 14 Este 0 -- -- 95
2020-03-24 05:00:00 3.9 11 Este 16 Este 0 -- -- 97
2020-03-24 04:00:00 1.7 3 Nordeste 6 Norte 0 -- -- 95
2020-03-24 03:00:00 2.2 0 Calma 8 Noroeste 0 -- -- 95
2020-03-24 02:00:00 3.2 2 Este 10 Este 0 -- -- 90
2020-03-24 01:00:00 3.8 10 Este 12 Este 0 -- -- 93
2020-03-24 00:00:00 4.8 7 Este 14 Este 0 -- -- 89
2020-03-23 23:00:00 5.8 9 Este 13 Este 0 -- -- 89
2020-03-23 22:00:00 6.7 6 Este 14 Este 0 -- -- 90
2020-03-23 21:00:00 7.4 3 Nordeste 9 Nordeste 0 -- -- 85
2020-03-23 20:00:00 9.1 9 Nordeste 15 Nordeste 0 -- -- 80
2020-03-23 19:00:00 11.6 13 Nordeste 26 Nordeste 0 -- -- 70
2020-03-23 18:00:00 12.3 19 Nordeste 42 Nordeste 0 -- -- 67
2020-03-23 17:00:00 13 24 Este 42 Nordeste 0 -- -- 64
2020-03-23 16:00:00 14.2 19 Nordeste 32 Nordeste 0 -- -- 63
2020-03-23 15:00:00 13.5 19 Nordeste 34 Nordeste 0 -- -- 62
2020-03-23 14:00:00 13.4 19 Nordeste 30 Nordeste 0 -- -- 66
2020-03-23 13:00:00 12.7 17 Nordeste 28 Este 0 -- -- 70
2020-03-23 12:00:00 10.8 18 Nordeste 27 Nordeste 0 -- -- 80
2020-03-23 11:00:00 8.2 17 Nordeste 24 Nordeste 0 -- -- 92
2020-03-23 10:00:00 5.6 18 Nordeste 24 Nordeste 0 -- -- 98
2020-03-23 09:00:00 4.7 14 Nordeste 20 Este 0 -- -- 99
2020-03-23 08:00:00 3 5 Nordeste 9 Nordeste 0 -- -- 99
2020-03-23 07:00:00 2.4 3 Este 4 Este 0 -- -- 99
2020-03-23 06:00:00 3.1 0 Calma 3 Este 0 -- -- 98
2020-03-23 05:00:00 2.7 0 Calma 0 Calma 0 -- -- 98
2020-03-23 04:00:00 2.8 0 Calma 4 Sur 0 -- -- 96
2020-03-23 03:00:00 3.9 2 Sudeste 4 Este 0 -- -- 96
2020-03-23 02:00:00 4.9 3 Nordeste 10 Este 0 -- -- 94
2020-03-23 01:00:00 5.9 6 Este 10 Nordeste 0 -- -- 96
2020-03-23 00:00:00 6.3 3 Este 6 Este 0 -- -- 92
2020-03-22 23:00:00 7 3 Este 7 Noroeste 0 -- -- 93
2020-03-22 22:00:00 7.8 2 Sudeste 9 Este 0 -- -- 89
2020-03-22 21:00:00 9.1 4 Sudeste 21 Este 0 -- -- 85
2020-03-22 20:00:00 9.6 7 Este 28 Nordeste 0 -- -- 80
2020-03-22 19:00:00 11.8 13 Nordeste 22 Nordeste 0 -- -- 71
2020-03-22 18:00:00 12.7 13 Nordeste 19 Nordeste 0 -- -- 69
2020-03-22 17:00:00 12.3 9 Nordeste 19 Este 0 -- -- 71
2020-03-22 16:00:00 11.8 12 Este 24 Norte 0 -- -- 72
2020-03-22 15:00:00 10.5 14 Nordeste 23 Norte 0 -- -- 78
2020-03-22 14:00:00 10.5 16 Nordeste 23 Nordeste 0 -- -- 80
2020-03-22 13:00:00 10 12 Nordeste 18 Nordeste 0 -- -- 80
2020-03-22 12:00:00 9.2 9 Nordeste 17 Nordeste 0 -- -- 83
2020-03-22 11:00:00 8.1 6 Este 13 Nordeste 0 -- -- 93
2020-03-22 10:00:00 6.5 0 Calma 4 Noroeste 0 -- -- 100
2020-03-22 09:00:00 5.7 3 Oeste 6 Oeste 0 -- -- 100
2020-03-22 08:00:00 5.3 4 Noroeste 8 Noroeste 0.2 -- -- 100
2020-03-22 07:00:00 5.1 3 Oeste 6 Oeste 0 -- -- 100
2020-03-22 06:00:00 4.8 0 Calma 6 Norte 0 -- -- 99
2020-03-22 05:00:00 5.1 0 Calma 8 Nordeste 0 -- -- 99
2020-03-22 04:00:00 5.4 4 Nordeste 6 Norte 0 -- -- 99
2020-03-22 03:00:00 5.7 4 Este 9 Este 0 -- -- 99
2020-03-22 02:00:00 5.4 5 Este 9 Este 0 -- -- 99
2020-03-22 01:00:00 3.5 0 Calma 4 Sudeste 0 -- -- 98
2020-03-22 00:00:00 3.8 4 Sudeste 5 Sudeste 0 -- -- 97
2020-03-21 23:00:00 4.5 3 Este 6 Este 0 -- -- 96
2020-03-21 22:00:00 5.4 3 Este 9 Nordeste 0 -- -- 95
2020-03-21 21:00:00 6.5 5 Nordeste 9 Nordeste 0 -- -- 91
2020-03-21 20:00:00 7.4 4 Nordeste 8 Nordeste 0 -- -- 92
2020-03-21 19:00:00 8.2 7 Norte 14 Norte 0 -- -- 86
2020-03-21 18:00:00 8.3 9 Noroeste 14 Oeste 0 -- -- 87
2020-03-21 17:00:00 8.6 9 Nordeste 12 Nordeste 0 -- -- 84
2020-03-21 16:00:00 8.6 8 Nordeste 14 Nordeste 0 -- -- 82
2020-03-21 15:00:00 7.9 3 Este 11 Sudeste 0.2 -- -- 84
2020-03-21 14:00:00 7.9 6 Sur 10 Sudeste 0 -- -- 84
2020-03-21 13:00:00 7.4 4 Sudeste 13 Sur 0.2 -- -- 87
2020-03-21 12:00:00 6.2 9 Sur 24 Sudeste 1 -- -- 92
2020-03-21 11:00:00 6.6 5 Sudoeste 13 Sudoeste 0.4 -- -- 94
2020-03-21 10:00:00 6.3 8 Sudoeste 17 Oeste 0.2 -- -- 91
2020-03-21 09:00:00 6.3 3 Oeste 8 Oeste 0.4 -- -- 98
2020-03-21 08:00:00 6.1 4 Oeste 10 Oeste 1.2 -- -- 98
2020-03-21 07:00:00 6.4 6 Oeste 12 Oeste 2.2 -- -- 98
2020-03-21 06:00:00 6.6 3 Norte 7 Oeste 0.4 -- -- 97
2020-03-21 05:00:00 6.9 5 Oeste 14 Sudoeste 0.2 -- -- 97
2020-03-21 04:00:00 7.3 10 Sudoeste 23 Sudoeste 0.6 -- -- 95
2020-03-21 03:00:00 8.4 10 Sudeste 17 Este 0 -- -- 94
2020-03-21 02:00:00 7.9 10 Este 15 Este 0 -- -- 96
2020-03-21 01:00:00 7.9 11 Este 15 Nordeste 0 -- -- 98
2020-03-21 00:00:00 7.3 7 Este 9 Este 0 -- -- 98
2020-03-20 23:00:00 7.6 4 Norte 6 Este 0 -- -- 96
2020-03-20 22:00:00 8.7 5 Este 14 Este 1.6 -- -- 95
2020-03-20 21:00:00 9.4 11 Este 22 Este 0 -- -- 91
2020-03-20 20:00:00 9.7 12 Este 17 Este 0 -- -- 90
2020-03-20 19:00:00 10.2 4 Este 8 Nordeste 0 -- -- 91
2020-03-20 18:00:00 10.3 7 Este 10 Este 0 -- -- 91
2020-03-20 17:00:00 9.6 5 Sudeste 11 Este 0 -- -- 94
2020-03-20 16:00:00 9.1 6 Este 10 Sudeste 0 -- -- 94
2020-03-20 15:00:00 8.8 5 Sur 15 Sudoeste 1 -- -- 95
2020-03-20 14:00:00 8.5 8 Sudoeste 19 Sudoeste 1.2 -- -- 95
2020-03-20 13:00:00 9.1 12 Sudoeste 21 Sudoeste 1.6 -- -- 92
2020-03-20 12:00:00 9.4 6 Sudoeste 13 Sudoeste 2.4 -- -- 95
2020-03-20 11:00:00 10 3 Sudoeste 20 Sudeste 0.6 -- -- 91
2020-03-20 10:00:00 9.5 12 Sudeste 18 Sudeste 0 -- -- 87
2020-03-20 09:00:00 8.9 4 Este 10 Este 0 -- -- 88
2020-03-20 08:00:00 8.3 4 Nordeste 14 Este 0 -- -- 90
2020-03-20 07:00:00 8.2 5 Este 13 Este 0 -- -- 89
2020-03-20 06:00:00 8.1 3 Nordeste 8 Este 0 -- -- 93
2020-03-20 05:00:00 7.9 6 Este 9 Este 0 -- -- 96
2020-03-20 04:00:00 7.9 2 Nordeste 10 Este 0 -- -- 93
2020-03-20 03:00:00 8.6 5 Sudeste 8 Este 0 -- -- 94
2020-03-20 02:00:00 8.9 3 Sudeste 8 Sudeste 0 -- -- 95
2020-03-20 01:00:00 8.8 4 Sudeste 5 Este 0 -- -- 95
2020-03-20 00:00:00 9.1 2 Sudeste 3 Sudeste 0 -- -- 93
2020-03-19 23:00:00 9.8 0 Calma 9 Sur 0 -- -- 91
2020-03-19 22:00:00 10.7 6 Sur 10 Sur 0 -- -- 90
2020-03-19 21:00:00 11 3 Sur 6 Sudeste 0 -- -- 89
2020-03-19 20:00:00 11.3 3 Este 4 Este 0 -- -- 88
2020-03-19 19:00:00 12.8 0 Calma 7 Nordeste 0 -- -- 83
2020-03-19 18:00:00 13.3 4 Este 8 Este 0 -- -- 79
2020-03-19 17:00:00 13.5 4 Este 7 Este 0 -- -- 75
2020-03-19 16:00:00 13.6 2 Nordeste 5 Este 0 -- -- 76
2020-03-19 15:00:00 13.6 2 Nordeste 9 Norte 0 -- -- 72
2020-03-19 14:00:00 13.6 3 Nordeste 10 Noroeste 0 -- -- 71
2020-03-19 13:00:00 13.6 5 Noroeste 14 Noroeste 0 -- -- 70
2020-03-19 12:00:00 13.1 6 Noroeste 15 Noroeste 0 -- -- 73
2020-03-19 11:00:00 11.9 7 Oeste 14 Oeste 0 -- -- 76
2020-03-19 10:00:00 9.5 5 Sur 7 Sur 0 -- -- 93
2020-03-19 09:00:00 6.3 4 Sur 6 Sur 0 -- -- 97
2020-03-19 08:00:00 5.4 0 Calma 2 Oeste 0 -- -- 95
2020-03-19 07:00:00 5.5 0 Calma 6 Noroeste 0 -- -- 94
2020-03-19 06:00:00 6.7 4 Sur 9 Sudeste 0 -- -- 91
2020-03-19 05:00:00 6.4 4 Este 6 Sur 0 -- -- 92
2020-03-19 04:00:00 6.6 3 Este 6 Este 0 -- -- 91
2020-03-19 03:00:00 7.6 2 Este 6 Sur 0 -- -- 88
2020-03-19 02:00:00 7.8 4 Sur 9 Sudoeste 0 -- -- 91
2020-03-19 01:00:00 8.4 2 Este 5 Sudeste 0 -- -- 89
2020-03-19 00:00:00 9.2 5 Este 10 Este 0 -- -- 88
2020-03-18 23:00:00 10.2 8 Este 13 Este 0 -- -- 83
2020-03-18 22:00:00 11.3 9 Este 19 Este 0 -- -- 80
2020-03-18 21:00:00 12 14 Este 26 Este 0 -- -- 86
2020-03-18 20:00:00 13.1 17 Este 22 Este 0 -- -- 85
2020-03-18 19:00:00 14.1 14 Nordeste 20 Nordeste 0 -- -- 81
2020-03-18 18:00:00 15.4 13 Nordeste 26 Nordeste 0 -- -- 76
2020-03-18 17:00:00 16.3 18 Nordeste 37 Nordeste 0 -- -- 68
2020-03-18 16:00:00 17 19 Nordeste 26 Nordeste 0 -- -- 65
2020-03-18 15:00:00 16 19 Nordeste 31 Este 0 -- -- 68
2020-03-18 14:00:00 15.2 20 Nordeste 31 Nordeste 0 -- -- 65
2020-03-18 13:00:00 14.3 18 Nordeste 30 Nordeste 0 -- -- 72
2020-03-18 12:00:00 12.6 18 Nordeste 31 Este 0 -- -- 76
2020-03-18 11:00:00 10.8 17 Este 30 Este 0 -- -- 82
2020-03-18 10:00:00 9 15 Este 22 Este 0 -- -- 87
2020-03-18 09:00:00 7.3 14 Este 19 Nordeste 0 -- -- 94
2020-03-18 08:00:00 5.6 10 Este 18 Este 0 -- -- 96
2020-03-18 07:00:00 6.1 14 Este 26 Este 0 -- -- 95
2020-03-18 06:00:00 6.1 14 Este 26 Este 0 -- -- 96
2020-03-18 05:00:00 6.6 12 Este 28 Este 0 -- -- 95
2020-03-18 04:00:00 6.6 15 Este 23 Este 0 -- -- 93
2020-03-18 03:00:00 6.6 12 Nordeste 25 Nordeste 0 -- -- 92
2020-03-18 02:00:00 7.4 19 Nordeste 28 Este 0 -- -- 90
2020-03-18 01:00:00 7.6 18 Nordeste 24 Nordeste 0 -- -- 90
2020-03-18 00:00:00 7.6 8 Nordeste 20 Este 0 -- -- 88
2020-03-17 23:00:00 8.9 12 Este 24 Este 0 -- -- 85
2020-03-17 22:00:00 8.3 10 Nordeste 23 Este 0 -- -- 88
2020-03-17 21:00:00 9.7 9 Este 18 Este 0 -- -- 85
2020-03-17 20:00:00 10.6 10 Nordeste 21 Nordeste 0 -- -- 76
2020-03-17 19:00:00 13.3 13 Este 32 Este 0 -- -- 66
2020-03-17 18:00:00 13.6 22 Este 43 Este 0 -- -- 65
2020-03-17 17:00:00 13.2 27 Este 44 Nordeste 0 -- -- 64
2020-03-17 16:00:00 12.2 21 Nordeste 43 Este 0 -- -- 73
2020-03-17 15:00:00 11.5 30 Este 46 Este 0 -- -- 74
2020-03-17 14:00:00 10.7 26 Nordeste 37 Este 0 -- -- 75
2020-03-17 13:00:00 9.6 24 Nordeste 35 Nordeste 0 -- -- 79
2020-03-17 12:00:00 8.6 25 Nordeste 36 Nordeste 0 -- -- 82
2020-03-17 11:00:00 7.8 23 Nordeste 33 Nordeste 0 -- -- 89
2020-03-17 10:00:00 6.3 19 Nordeste 29 Nordeste 0 -- -- 94
2020-03-17 09:00:00 5.2 10 Este 27 Este 0 -- -- 96
2020-03-17 08:00:00 4.1 9 Este 17 Este 0 -- -- 96
2020-03-17 07:00:00 3.4 4 Este 14 Este 0 -- -- 96
2020-03-17 06:00:00 2.7 9 Nordeste 18 Nordeste 0 -- -- 96
2020-03-17 05:00:00 4 15 Nordeste 23 Nordeste 0 -- -- 93
2020-03-17 04:00:00 4.1 7 Sudeste 23 Este 0 -- -- 95
2020-03-17 03:00:00 4.1 10 Este 25 Este 0 -- -- 96
2020-03-17 02:00:00 3.9 15 Nordeste 23 Este 0.2 -- -- 95
2020-03-17 01:00:00 3.6 14 Este 40 Nordeste 0.8 -- -- 93
2020-03-17 00:00:00 4.6 30 Nordeste 49 Nordeste 0.8 -- -- 92
2020-03-16 23:00:00 4.8 31 Nordeste 55 Nordeste 0.2 -- -- 89
2020-03-16 22:00:00 4.9 23 Nordeste 35 Nordeste 0.2 -- -- 90
2020-03-16 21:00:00 4.8 21 Norte 50 Nordeste 0 -- -- 91
2020-03-16 20:00:00 4.8 29 Nordeste 50 Nordeste 1.4 -- -- 90
2020-03-16 19:00:00 4.8 26 Norte 46 Nordeste 1 -- -- 89
2020-03-16 18:00:00 4.7 20 Nordeste 34 Nordeste 1.2 -- -- 91
2020-03-16 17:00:00 4.4 17 Este 58 Norte 0.6 -- -- 91
2020-03-16 16:00:00 4.8 20 Norte 47 Norte 0.4 -- -- 87
2020-03-16 15:00:00 4.6 14 Noroeste 28 Noroeste 0.2 -- -- 93
2020-03-16 14:00:00 3.2 18 Noroeste 34 Noroeste 0.4 -- -- 96
2020-03-16 13:00:00 2.8 22 Norte 40 Norte 0.8 -- -- 94
2020-03-16 12:00:00 3.5 28 Norte 44 Norte 0.4 -- -- 87
2020-03-16 11:00:00 4.1 13 Norte 24 Norte 0 -- -- 87
2020-03-16 10:00:00 2.7 17 Noroeste 27 Noroeste 0.2 -- -- 95
2020-03-16 09:00:00 1.5 16 Noroeste 26 Noroeste 0.2 -- -- 97
2020-03-16 08:00:00 1.2 16 Noroeste 27 Noroeste 0.6 -- -- 97
2020-03-16 07:00:00 1.3 17 Noroeste 27 Noroeste 0.4 -- -- 96
2020-03-16 06:00:00 1.1 15 Noroeste 26 Noroeste 0.6 -- -- 96
2020-03-16 05:00:00 1.5 18 Noroeste 28 Noroeste 0.2 -- -- 95
2020-03-16 04:00:00 1.5 15 Noroeste 26 Noroeste 0.2 -- -- 95
2020-03-16 03:00:00 0.8 12 Noroeste 31 Noroeste 0.2 -- -- 94
2020-03-16 02:00:00 1.8 14 Noroeste 26 Noroeste 0 -- -- 90
2020-03-16 01:00:00 1.7 13 Oeste 22 Noroeste 0 -- -- 89
2020-03-16 00:00:00 1.3 10 Oeste 29 Noroeste 0 -- -- 89
2020-03-15 23:00:00 2.3 16 Oeste 28 Oeste 0 -- -- 89
2020-03-15 22:00:00 2.8 14 Oeste 31 Noroeste 0.2 -- -- 93
2020-03-15 21:00:00 3.3 23 Noroeste 44 Oeste 0.2 -- -- 91
2020-03-15 20:00:00 7.6 30 Oeste 48 Oeste 0 -- -- 80
2020-03-15 19:00:00 11 11 Oeste 23 Sudoeste 0 -- -- 65
2020-03-15 18:00:00 11.2 15 Oeste 28 Oeste 0 -- -- 65
2020-03-15 17:00:00 11.6 12 Oeste 27 Oeste 0 -- -- 69
2020-03-15 16:00:00 12.2 20 Oeste 41 Oeste 0 -- -- 66
2020-03-15 15:00:00 12.3 22 Oeste 49 Sudoeste 0 -- -- 73
2020-03-15 14:00:00 16.8 26 Sudoeste 42 Sudoeste 0 -- -- 54
2020-03-15 13:00:00 16.4 18 Oeste 30 Oeste 0 -- -- 60
2020-03-15 12:00:00 16 19 Oeste 34 Sudoeste 0 -- -- 59
2020-03-15 11:00:00 16 17 Sudoeste 27 Sudoeste 0 -- -- 61
2020-03-15 10:00:00 10.8 0 Calma 4 Oeste 0 -- -- 74
2020-03-15 09:00:00 4.4 0 Calma 3 Oeste 0 -- -- 88
2020-03-15 08:00:00 2.3 2 Sudoeste 9 Sudeste 0 -- -- 83
2020-03-15 07:00:00 2.6 4 Sudeste 10 Sudeste 0 -- -- 82
2020-03-15 06:00:00 1.2 3 Sudeste 8 Sudeste 0 -- -- 87
2020-03-15 05:00:00 1.2 4 Sudeste 8 Sudeste 0 -- -- 88
2020-03-15 04:00:00 0.2 0 Calma 4 Oeste 0 -- -- 87
2020-03-15 03:00:00 1.6 0 Calma 6 Sur 0 -- -- 83
2020-03-15 02:00:00 1.3 0 Calma 6 Sudeste 0 -- -- 81
2020-03-15 01:00:00 3.2 2 Sudeste 5 Este 0 -- -- 76
2020-03-15 00:00:00 3.9 3 Este 7 Este 0 -- -- 72
2020-03-14 23:00:00 6.6 4 Sudeste 11 Sudeste 0 -- -- 67
2020-03-14 22:00:00 7.8 5 Sudeste 10 Este 0 -- -- 63
2020-03-14 21:00:00 10.1 8 Este 9 Este 0 -- -- 52
2020-03-14 20:00:00 10.9 4 Este 11 Norte 0 -- -- 55
2020-03-14 19:00:00 15.3 5 Nordeste 9 Norte 0 -- -- 52
2020-03-14 18:00:00 17.3 7 Nordeste 14 Nordeste 0 -- -- 38
2020-03-14 17:00:00 17.7 8 Norte 17 Norte 0 -- -- 34
2020-03-14 16:00:00 17.7 11 Nordeste 18 Nordeste 0 -- -- 33
2020-03-14 15:00:00 17.1 10 Nordeste 20 Nordeste 0 -- -- 37
2020-03-14 14:00:00 16.1 14 Nordeste 20 Nordeste 0 -- -- 40
2020-03-14 13:00:00 14.7 14 Nordeste 25 Nordeste 0 -- -- 47
2020-03-14 12:00:00 13.3 12 Nordeste 24 Nordeste 0 -- -- 67
2020-03-14 11:00:00 11.5 16 Nordeste 23 Este 0 -- -- 75
2020-03-14 10:00:00 8.4 6 Nordeste 14 Este 0 -- -- 88
2020-03-14 09:00:00 5.3 9 Este 16 Este 0 -- -- 97
2020-03-14 08:00:00 2.5 0 Calma 9 Este 0 -- -- 98
2020-03-14 07:00:00 2.4 5 Nordeste 10 Este 0 -- -- 97
2020-03-14 06:00:00 3.1 8 Este 13 Este 0 -- -- 97
2020-03-14 05:00:00 3.3 8 Este 10 Este 0 -- -- 97
2020-03-14 04:00:00 2.9 8 Nordeste 10 Nordeste 0 -- -- 96
2020-03-14 03:00:00 3.9 5 Este 8 Nordeste 0 -- -- 97
2020-03-14 02:00:00 4.4 2 Nordeste 5 Norte 0 -- -- 95
2020-03-14 01:00:00 5.3 5 Norte 11 Este 0 -- -- 91
2020-03-14 00:00:00 6.5 3 Este 10 Este 0 -- -- 93
2020-03-13 23:00:00 7.2 0 Calma 6 Nordeste 0 -- -- 91
2020-03-13 22:00:00 8 3 Nordeste 13 Nordeste 0 -- -- 88
2020-03-13 21:00:00 9 9 Nordeste 11 Nordeste 0 -- -- 87
2020-03-13 20:00:00 10.7 7 Nordeste 14 Nordeste 0 -- -- 81
2020-03-13 19:00:00 13 9 Norte 21 Norte 0 -- -- 77
2020-03-13 18:00:00 14.5 16 Norte 23 Norte 0 -- -- 73
2020-03-13 17:00:00 15.1 11 Norte 18 Nordeste 0 -- -- 72
2020-03-13 16:00:00 14.7 12 Nordeste 20 Norte 0 -- -- 72
2020-03-13 15:00:00 14 12 Nordeste 26 Este 0 -- -- 74
2020-03-13 14:00:00 12.6 14 Nordeste 24 Nordeste 0 -- -- 78
2020-03-13 13:00:00 11.7 16 Nordeste 26 Nordeste 0 -- -- 80
2020-03-13 12:00:00 10.3 17 Nordeste 28 Este 0 -- -- 83
2020-03-13 11:00:00 8.9 19 Nordeste 30 Nordeste 0 -- -- 87
2020-03-13 10:00:00 8.1 23 Nordeste 31 Este 0 -- -- 89
2020-03-13 09:00:00 7.6 21 Nordeste 29 Nordeste 0 -- -- 91
2020-03-13 08:00:00 7.8 18 Nordeste 28 Nordeste 0 -- -- 93
2020-03-13 07:00:00 7.8 19 Nordeste 30 Nordeste 0 -- -- 95
2020-03-13 06:00:00 7.6 12 Nordeste 23 Este 0 -- -- 95
2020-03-13 05:00:00 7.6 12 Nordeste 21 Este 0 -- -- 94
2020-03-13 04:00:00 7.7 9 Nordeste 14 Nordeste 0 -- -- 95
2020-03-13 03:00:00 8.6 10 Nordeste 18 Nordeste 0 -- -- 93
2020-03-13 02:00:00 9.5 13 Este 23 Este 0 -- -- 94
2020-03-13 01:00:00 8.8 7 Nordeste 13 Norte 0 -- -- 92
2020-03-13 00:00:00 10.9 0 Calma 5 Oeste 0 -- -- 88
2020-03-12 23:00:00 11.6 2 Sur 5 Oeste 0 -- -- 85
2020-03-12 22:00:00 13.2 2 Sudoeste 6 Oeste 0 -- -- 79
2020-03-12 21:00:00 13.7 3 Sudoeste 4 Sur 0 -- -- 79
2020-03-12 20:00:00 16 3 Sudoeste 5 Oeste 0 -- -- 68
2020-03-12 19:00:00 18 3 Sudoeste 6 Oeste 0 -- -- 66
2020-03-12 18:00:00 18.6 4 Noroeste 19 Noroeste 0 -- -- 62
2020-03-12 17:00:00 19.7 13 Noroeste 21 Noroeste 0 -- -- 60
2020-03-12 16:00:00 20.9 9 Oeste 21 Oeste 0 -- -- 47
2020-03-12 15:00:00 20.8 14 Sudoeste 24 Oeste 0 -- -- 50
2020-03-12 14:00:00 21.8 14 Sudoeste 23 Oeste 0 -- -- 50
2020-03-12 13:00:00 18.1 8 Norte 21 Noroeste 0 -- -- 62
2020-03-12 12:00:00 18.5 5 Noroeste 9 Noroeste 0 -- -- 63
2020-03-12 11:00:00 15.4 2 Sudeste 8 Sudeste 0 -- -- 70
2020-03-12 10:00:00 11.4 0 Calma 11 Oeste 0 -- -- 83
2020-03-12 09:00:00 9.2 2 Oeste 5 Oeste 0 -- -- 88
2020-03-12 08:00:00 9.3 2 Nordeste 11 Este 0 -- -- 78
2020-03-12 07:00:00 8.4 0 Calma 3 Sudeste 0 -- -- 86
2020-03-12 06:00:00 9.1 0 Calma 10 Sudeste 0 -- -- 84
2020-03-12 05:00:00 10.4 3 Sudeste 13 Sudeste 0 -- -- 77
2020-03-12 04:00:00 11.5 10 Sudeste 13 Sudeste 0 -- -- 73
2020-03-12 03:00:00 11.7 7 Sudeste 10 Sudeste 0 -- -- 71
2020-03-12 02:00:00 12.6 5 Sudeste 11 Sudeste 0 -- -- 69
2020-03-12 01:00:00 13.2 9 Sudeste 12 Sudeste 0 -- -- 67
2020-03-12 00:00:00 13 6 Sudeste 10 Sudeste 0 -- -- 68
2020-03-11 23:00:00 12.6 0 Calma 8 Sudeste 0 -- -- 75
2020-03-11 22:00:00 14.4 4 Sudeste 6 Sudeste 0 -- -- 70
2020-03-11 21:00:00 14.9 0 Calma 5 Sur 0 -- -- 69
2020-03-11 20:00:00 17.1 0 Calma 17 Sudoeste 0 -- -- 62
2020-03-11 19:00:00 18.9 9 Sudoeste 19 Sudoeste 0 -- -- 53
2020-03-11 18:00:00 21.1 13 Sudoeste 22 Sudoeste 0 -- -- 45
2020-03-11 17:00:00 23.6 9 Sudoeste 22 Sudoeste 0 -- -- 43
2020-03-11 16:00:00 24.2 12 Sudoeste 20 Sudoeste 0 -- -- 42
2020-03-11 15:00:00 23.4 11 Oeste 21 Sudoeste 0 -- -- 40
2020-03-11 14:00:00 22.5 10 Oeste 17 Oeste 0 -- -- 45
2020-03-11 13:00:00 21.7 9 Oeste 16 Oeste 0 -- -- 45
2020-03-11 12:00:00 20 5 Oeste 9 Oeste 0 -- -- 55
2020-03-11 11:00:00 17.3 2 Noroeste 8 Noroeste 0 -- -- 68
2020-03-11 10:00:00 15.1 2 Sur 9 Sudeste 0 -- -- 74
2020-03-11 09:00:00 10.6 5 Sudeste 10 Sudeste 0 -- -- 82
2020-03-11 08:00:00 5.9 2 Sudeste 14 Sudeste 0 -- -- 88
2020-03-11 07:00:00 7.9 9 Sudeste 12 Sudeste 0 -- -- 85
2020-03-11 06:00:00 8 10 Sudeste 14 Sudeste 0 -- -- 85
2020-03-11 05:00:00 6.7 0 Calma 9 Sudeste 0 -- -- 88
2020-03-11 04:00:00 6.9 5 Sudeste 11 Sudeste 0 -- -- 87
2020-03-11 03:00:00 8.1 8 Sudeste 14 Sudeste 0 -- -- 87
2020-03-11 02:00:00 8.5 12 Sudeste 13 Sudeste 0 -- -- 87
2020-03-11 01:00:00 9.1 8 Sur 10 Sur 0 -- -- 84
2020-03-11 00:00:00 9.6 8 Sur 11 Sur 0 -- -- 80
2020-03-10 23:00:00 11.3 7 Sur 11 Sudoeste 0 -- -- 76
2020-03-10 22:00:00 12.7 8 Sudoeste 9 Sudoeste 0 -- -- 73
2020-03-10 21:00:00 13.5 4 Sudoeste 9 Sudoeste 0 -- -- 69
2020-03-10 20:00:00 15.5 6 Sudoeste 9 Noroeste 0 -- -- 63
2020-03-10 19:00:00 19.9 5 Oeste 10 Oeste 0 -- -- 58
2020-03-10 18:00:00 20.6 8 Oeste 19 Oeste 0 -- -- 53
2020-03-10 17:00:00 21.5 11 Oeste 20 Oeste 0 -- -- 46
2020-03-10 16:00:00 21.4 11 Oeste 18 Sudoeste 0 -- -- 45
2020-03-10 15:00:00 20.7 10 Oeste 21 Oeste 0 -- -- 52
2020-03-10 14:00:00 19.4 9 Oeste 16 Oeste 0 -- -- 47
2020-03-10 13:00:00 17.5 6 Sudoeste 12 Sudoeste 0 -- -- 51
2020-03-10 12:00:00 14.7 4 Oeste 10 Oeste 0 -- -- 59
2020-03-10 11:00:00 12.5 4 Oeste 8 Sudeste 0 -- -- 72
2020-03-10 10:00:00 9.1 6 Sudeste 9 Sudeste 0 -- -- 83
2020-03-10 09:00:00 4.5 3 Sudeste 7 Oeste 0 -- -- 94
2020-03-10 08:00:00 4.1 3 Oeste 13 Sudeste 0 -- -- 88
2020-03-10 07:00:00 5.2 7 Sudeste 14 Sudeste 0 -- -- 88
2020-03-10 06:00:00 5.3 8 Sur 12 Sudeste 0 -- -- 91
2020-03-10 05:00:00 5.4 6 Sur 13 Sudoeste 0 -- -- 90
2020-03-10 04:00:00 5.6 10 Sudoeste 15 Sudoeste 0 -- -- 84
2020-03-10 03:00:00 4 3 Sudeste 9 Sudeste 0 -- -- 89
2020-03-10 02:00:00 5.2 9 Sudeste 12 Sudeste 0 -- -- 87
2020-03-10 01:00:00 5.4 9 Sudeste 15 Sudeste 0 -- -- 85
2020-03-10 00:00:00 5.8 8 Sur 13 Sudeste 0 -- -- 84
2020-03-09 23:00:00 5.9 5 Sur 7 Sur 0 -- -- 83
2020-03-09 22:00:00 6.7 2 Sudoeste 6 Sudoeste 0 -- -- 79
2020-03-09 21:00:00 7.4 2 Sur 4 Sur 0 -- -- 77
2020-03-09 20:00:00 9.8 3 Oeste 11 Noroeste 0 -- -- 66
2020-03-09 19:00:00 12.4 6 Oeste 15 Oeste 0 -- -- 59
2020-03-09 18:00:00 13.9 9 Noroeste 17 Noroeste 0 -- -- 54
2020-03-09 17:00:00 14 6 Oeste 13 Oeste 0 -- -- 53
2020-03-09 16:00:00 13.2 5 Oeste 13 Oeste 0 -- -- 57
2020-03-09 15:00:00 12.5 6 Oeste 14 Oeste 0 -- -- 61
2020-03-09 14:00:00 11.3 6 Noroeste 16 Noroeste 0 -- -- 65
2020-03-09 13:00:00 10 6 Noroeste 15 Noroeste 0 -- -- 71
2020-03-09 12:00:00 8.4 5 Oeste 14 Oeste 0 -- -- 76
2020-03-09 11:00:00 6.9 6 Oeste 17 Oeste 0 -- -- 84
2020-03-09 10:00:00 6.1 6 Oeste 10 Noroeste 0 -- -- 96
2020-03-09 09:00:00 4 4 Sudoeste 8 Sur 0 -- -- 100
2020-03-09 08:00:00 1.9 4 Sur 9 Sudoeste 0 -- -- 99
2020-03-09 07:00:00 2.8 6 Sudoeste 10 Sudoeste 0 -- -- 99
2020-03-09 06:00:00 3.5 5 Sudoeste 9 Sudoeste 0 -- -- 98
2020-03-09 05:00:00 3.9 6 Sudoeste 12 Oeste 0 -- -- 98
2020-03-09 04:00:00 5.4 6 Oeste 14 Oeste 0 -- -- 97
2020-03-09 03:00:00 6 9 Oeste 14 Oeste 0 -- -- 97
2020-03-09 02:00:00 6.8 9 Oeste 15 Oeste 0 -- -- 97
2020-03-09 01:00:00 7.1 11 Sudoeste 16 Sudoeste 0 -- -- 98
2020-03-09 00:00:00 7.2 9 Sudoeste 19 Oeste 0 -- -- 96
2020-03-08 23:00:00 7.5 9 Sudoeste 20 Sudoeste 0 -- -- 95
2020-03-08 22:00:00 8.1 8 Sudoeste 17 Oeste 0 -- -- 94
2020-03-08 21:00:00 9.4 7 Sudoeste 17 Sudoeste 0 -- -- 89
2020-03-08 20:00:00 9.9 6 Sudoeste 15 Oeste 0 -- -- 87
2020-03-08 19:00:00 10.5 7 Oeste 18 Oeste 0 -- -- 83
2020-03-08 18:00:00 10.6 12 Oeste 26 Oeste 0 -- -- 81
2020-03-08 17:00:00 10.8 13 Oeste 24 Noroeste 0 -- -- 80
2020-03-08 16:00:00 10 11 Oeste 18 Sudoeste 0 -- -- 78
2020-03-08 15:00:00 9.3 12 Sudoeste 19 Sudoeste 0 -- -- 75
2020-03-08 14:00:00 8.9 10 Oeste 17 Oeste 0 -- -- 75
2020-03-08 13:00:00 8.4 12 Sudoeste 18 Oeste 0 -- -- 77
2020-03-08 12:00:00 7.6 8 Oeste 17 Oeste 0 -- -- 84
2020-03-08 11:00:00 6.3 8 Sudoeste 14 Oeste 0 -- -- 92
2020-03-08 10:00:00 5.3 6 Sudoeste 12 Sudoeste 0 -- -- 95
2020-03-08 09:00:00 3.7 3 Sur 5 Sur 0 -- -- 98
2020-03-08 08:00:00 3.4 3 Sudoeste 10 Sur 0 -- -- 97
2020-03-08 07:00:00 2.6 8 Sudoeste 14 Sudoeste 0 -- -- 96
2020-03-08 06:00:00 3.1 9 Sudoeste 14 Sudoeste 0 -- -- 96
2020-03-08 05:00:00 3.5 8 Sudoeste 12 Sudoeste 0 -- -- 94
2020-03-08 04:00:00 2.6 6 Sur 9 Sudoeste 0 -- -- 93
2020-03-08 03:00:00 2.5 5 Sudoeste 10 Sur 0 -- -- 94
2020-03-08 02:00:00 2.1 3 Oeste 16 Sudeste 0 -- -- 89
2020-03-08 01:00:00 2.9 11 Sudeste 14 Sudeste 0 -- -- 91
2020-03-08 00:00:00 3.8 12 Sudeste 15 Sudeste 0 -- -- 90